createdAt,value
2023-05-17T00:01:04.698Z,8.05
2023-05-17T00:03:31.244Z,7.97
2023-05-17T00:05:57.819Z,7.93
2023-05-17T00:08:24.435Z,8.00
2023-05-17T00:10:53.212Z,7.94
2023-05-17T00:13:19.994Z,7.92
2023-05-17T00:15:46.612Z,7.96
2023-05-17T00:18:13.300Z,8.19
2023-05-17T00:20:42.372Z,8.07
2023-05-17T00:23:11.195Z,8.09
2023-05-17T00:25:37.761Z,8.13
2023-05-17T00:28:04.562Z,8.14
2023-05-17T00:30:31.142Z,8.13
2023-05-17T00:33:00.077Z,8.06
2023-05-17T00:35:29.866Z,8.16
2023-05-17T00:37:56.733Z,8.09
2023-05-17T00:40:27.927Z,8.17
2023-05-17T00:42:54.539Z,8.16
2023-05-17T00:45:21.126Z,8.16
2023-05-17T00:47:52.575Z,8.10
2023-05-17T00:50:21.714Z,8.16
2023-05-17T00:52:50.822Z,8.14
2023-05-17T00:55:20.630Z,8.15
2023-05-17T00:57:49.889Z,8.12
2023-05-17T01:00:17.150Z,8.09
2023-05-17T01:02:44.810Z,8.08
2023-05-17T01:05:13.972Z,8.14
2023-05-17T01:07:43.561Z,8.10
2023-05-17T01:10:12.740Z,8.16
2023-05-17T01:13:23.744Z,8.22
2023-05-17T01:16:04.879Z,8.07
2023-05-17T01:18:46.364Z,8.16
2023-05-17T01:21:36.345Z,8.16
2023-05-17T01:24:30.673Z,7.90
2023-05-17T01:27:02.548Z,8.06
2023-05-17T01:29:30.143Z,7.94
2023-05-17T01:31:59.563Z,8.02
2023-05-17T01:34:27.642Z,7.98
2023-05-17T01:36:54.590Z,8.15
2023-05-17T01:39:25.849Z,8.16
2023-05-17T01:42:13.880Z,8.13
2023-05-17T01:45:02.821Z,8.12
2023-05-17T01:47:54.337Z,8.06
2023-05-17T01:50:26.551Z,8.16
2023-05-17T01:52:55.215Z,8.08
2023-05-17T01:55:31.887Z,8.03
2023-05-17T01:58:01.132Z,8.18
2023-05-17T02:00:29.794Z,8.17
2023-05-17T02:03:01.769Z,8.16
2023-05-17T02:05:30.906Z,8.18
2023-05-17T02:07:57.689Z,8.14
2023-05-17T02:10:26.523Z,8.18
2023-05-17T02:12:55.620Z,8.16
2023-05-17T02:15:22.257Z,8.09
2023-05-17T02:17:53.866Z,8.13
2023-05-17T02:20:21.197Z,8.20
2023-05-17T02:22:47.855Z,8.16
2023-05-17T02:25:15.002Z,8.19
2023-05-17T02:27:41.603Z,8.14
2023-05-17T02:30:08.746Z,8.17
2023-05-17T02:32:38.868Z,8.13
2023-05-17T02:35:05.949Z,8.12
2023-05-17T02:37:34.736Z,8.16
2023-05-17T02:40:01.405Z,8.10
2023-05-17T02:42:28.094Z,8.08
2023-05-17T02:44:56.900Z,8.18
2023-05-17T02:47:23.690Z,8.14
2023-05-17T02:49:55.272Z,8.15
2023-05-17T02:52:24.048Z,8.17
2023-05-17T02:54:51.506Z,8.24
2023-05-17T02:57:18.257Z,8.10
2023-05-17T02:59:52.058Z,8.04
2023-05-17T03:02:18.690Z,8.14
2023-05-17T03:04:48.508Z,8.06
2023-05-17T03:07:15.173Z,8.11
2023-05-17T03:09:42.916Z,8.06
2023-05-17T03:12:09.891Z,8.07
2023-05-17T03:14:38.740Z,8.08
2023-05-17T03:17:05.353Z,8.11
2023-05-17T03:19:34.324Z,8.13
2023-05-17T03:22:03.427Z,8.09
2023-05-17T03:24:29.994Z,7.98
2023-05-17T03:26:59.039Z,8.03
2023-05-17T03:29:28.664Z,8.02
2023-05-17T03:31:57.493Z,7.94
2023-05-17T03:34:24.049Z,7.99
2023-05-17T03:36:50.710Z,7.94
2023-05-17T03:39:17.339Z,8.02
2023-05-17T03:41:43.976Z,8.02
2023-05-17T03:44:10.661Z,7.96
2023-05-17T03:46:37.247Z,7.96
2023-05-17T03:49:03.936Z,8.02
2023-05-17T03:51:31.194Z,7.98
2023-05-17T03:53:59.716Z,7.98
2023-05-17T03:56:28.531Z,7.89
2023-05-17T03:58:57.373Z,7.85
2023-05-17T04:01:23.939Z,7.84
2023-05-17T04:03:50.559Z,7.85
2023-05-17T04:06:17.361Z,7.91
2023-05-17T04:08:43.994Z,7.88
2023-05-17T04:11:13.879Z,7.80
2023-05-17T04:13:41.669Z,7.81
2023-05-17T04:16:12.291Z,7.79
2023-05-17T04:18:42.149Z,7.84
2023-05-17T04:21:11.692Z,7.82
2023-05-17T04:23:40.807Z,7.81
2023-05-17T04:26:10.059Z,7.78
2023-05-17T04:28:36.849Z,7.70
2023-05-17T04:31:07.132Z,7.72
2023-05-17T04:33:33.750Z,7.86
2023-05-17T04:36:04.000Z,7.86
2023-05-17T04:38:31.114Z,7.86
2023-05-17T04:41:06.933Z,7.80
2023-05-17T04:43:33.936Z,7.82
2023-05-17T04:46:00.933Z,7.77
2023-05-17T04:48:31.168Z,7.84
2023-05-17T04:51:04.187Z,7.80
2023-05-17T04:53:31.372Z,7.76
2023-05-17T04:56:04.152Z,7.69
2023-05-17T04:58:31.906Z,7.83
2023-05-17T05:01:03.635Z,7.88
2023-05-17T05:03:30.413Z,8.03
2023-05-17T05:05:59.540Z,7.94
2023-05-17T05:08:28.404Z,7.97
2023-05-17T05:10:57.938Z,8.04
2023-05-17T05:13:24.614Z,7.96
2023-05-17T05:15:53.638Z,7.88
2023-05-17T05:18:25.649Z,8.11
2023-05-17T05:20:52.383Z,7.97
2023-05-17T05:23:19.045Z,7.92
2023-05-17T05:25:46.005Z,8.10
2023-05-17T05:28:12.646Z,8.15
2023-05-17T05:30:39.868Z,8.00
2023-05-17T05:33:06.617Z,8.23
2023-05-17T05:35:36.290Z,8.16
2023-05-17T05:38:06.583Z,8.08
2023-05-17T05:40:33.459Z,8.03
2023-05-17T05:43:02.419Z,8.25
2023-05-17T05:45:29.063Z,7.96
2023-05-17T05:47:58.057Z,8.02
2023-05-17T05:50:24.840Z,8.17
2023-05-17T05:52:51.515Z,8.26
2023-05-17T05:55:22.726Z,8.38
2023-05-17T05:57:49.526Z,8.48
2023-05-17T06:00:18.026Z,8.57
2023-05-17T06:02:53.500Z,8.72
2023-05-17T06:05:20.369Z,8.72
2023-05-17T06:07:46.973Z,8.80
2023-05-17T06:10:13.561Z,8.60
2023-05-17T06:12:40.241Z,8.53
2023-05-17T06:15:07.471Z,8.62
2023-05-17T06:17:36.309Z,8.73
2023-05-17T06:20:03.218Z,8.59
2023-05-17T06:22:29.854Z,8.92
2023-05-17T06:24:59.508Z,8.55
2023-05-17T06:27:26.744Z,8.57
2023-05-17T06:29:53.757Z,8.65
2023-05-17T06:32:22.770Z,8.56
2023-05-17T06:34:51.489Z,8.74
2023-05-17T06:37:20.446Z,8.68
2023-05-17T06:40:00.051Z,8.67
2023-05-17T06:42:41.004Z,8.77
2023-05-17T06:45:08.090Z,8.90
2023-05-17T06:47:34.763Z,9.02
2023-05-17T06:50:01.460Z,8.97
2023-05-17T06:52:28.100Z,9.14
2023-05-17T06:54:57.012Z,9.32
2023-05-17T06:57:24.466Z,9.14
2023-05-17T06:59:53.291Z,9.12
2023-05-17T07:02:22.509Z,9.03
2023-05-17T07:04:49.132Z,9.19
2023-05-17T07:07:15.865Z,9.16
2023-05-17T07:09:49.820Z,9.17
2023-05-17T07:12:16.421Z,8.98
2023-05-17T07:14:45.256Z,8.99
2023-05-17T07:17:14.453Z,9.44
2023-05-17T07:19:44.151Z,9.30
2023-05-17T07:22:13.117Z,9.37
2023-05-17T07:24:42.030Z,9.74
2023-05-17T07:27:08.596Z,9.77
2023-05-17T07:29:38.186Z,9.97
2023-05-17T07:32:05.058Z,9.67
2023-05-17T07:34:31.697Z,10.04
2023-05-17T07:37:00.766Z,10.40
2023-05-17T07:39:27.305Z,10.05
2023-05-17T07:41:56.073Z,10.38
2023-05-17T07:44:22.658Z,10.24
2023-05-17T07:46:51.948Z,10.09
2023-05-17T07:49:21.081Z,10.38
2023-05-17T07:51:50.862Z,10.00
2023-05-17T07:54:24.833Z,9.99
2023-05-17T07:56:53.182Z,10.06
2023-05-17T07:59:19.883Z,10.38
2023-05-17T08:01:46.435Z,10.22
2023-05-17T08:04:15.992Z,10.16
2023-05-17T08:06:48.566Z,10.11
2023-05-17T08:09:21.088Z,10.04
2023-05-17T08:11:47.918Z,10.80
2023-05-17T08:14:17.575Z,10.25
2023-05-17T08:16:48.525Z,10.74
2023-05-17T08:19:15.979Z,10.43
2023-05-17T08:21:46.463Z,10.92
2023-05-17T08:24:13.260Z,11.18
2023-05-17T08:26:44.501Z,11.45
2023-05-17T08:29:13.431Z,11.90
2023-05-17T08:31:42.320Z,12.08
2023-05-17T08:34:09.037Z,11.86
2023-05-17T08:36:36.569Z,11.95
2023-05-17T08:39:04.140Z,11.84
2023-05-17T08:41:33.484Z,11.89
2023-05-17T08:44:03.551Z,12.22
2023-05-17T08:46:33.198Z,12.11
2023-05-17T08:49:04.137Z,11.82
2023-05-17T08:51:32.631Z,12.14
2023-05-17T08:53:59.534Z,11.96
2023-05-17T08:56:30.078Z,11.85
2023-05-17T08:58:58.151Z,11.98
2023-05-17T09:01:26.862Z,12.56
2023-05-17T09:03:54.616Z,12.68
2023-05-17T09:06:25.422Z,12.91
2023-05-17T09:08:55.109Z,13.36
2023-05-17T09:11:37.319Z,13.26
2023-05-17T09:14:06.481Z,13.73
2023-05-17T09:16:37.351Z,14.06
2023-05-17T09:19:14.440Z,13.67
2023-05-17T09:21:47.676Z,14.17
2023-05-17T09:24:18.629Z,14.02
2023-05-17T09:26:46.344Z,13.92
2023-05-17T09:29:17.451Z,13.22
2023-05-17T09:31:44.837Z,12.74
2023-05-17T09:34:14.422Z,13.08
2023-05-17T09:36:44.329Z,12.91
2023-05-17T09:39:13.194Z,12.99
2023-05-17T09:41:47.975Z,13.02
2023-05-17T09:44:15.933Z,13.37
2023-05-17T09:46:45.160Z,13.49
2023-05-17T09:49:13.047Z,13.55
2023-05-17T09:51:47.475Z,13.13
2023-05-17T09:54:14.153Z,13.39
2023-05-17T09:56:45.857Z,13.75
2023-05-17T09:59:20.564Z,13.72
2023-05-17T10:01:50.315Z,13.71
2023-05-17T10:04:20.728Z,13.37
2023-05-17T10:06:51.929Z,13.71
2023-05-17T10:09:24.428Z,14.05
2023-05-17T10:11:53.955Z,14.58
2023-05-17T10:14:37.342Z,14.44
2023-05-17T10:17:09.118Z,14.89
2023-05-17T10:19:38.409Z,14.82
2023-05-17T10:22:21.665Z,14.82
2023-05-17T10:24:51.520Z,13.86
2023-05-17T10:27:21.207Z,14.30
2023-05-17T10:29:52.560Z,14.33
2023-05-17T10:32:23.442Z,14.86
2023-05-17T10:35:05.957Z,14.17
2023-05-17T10:37:41.362Z,14.00
2023-05-17T10:40:13.204Z,14.29
2023-05-17T10:42:47.356Z,14.09
2023-05-17T10:45:14.720Z,14.07
2023-05-17T10:47:43.860Z,14.83
2023-05-17T10:50:15.103Z,14.50
2023-05-17T10:52:52.038Z,14.60
2023-05-17T10:55:40.026Z,15.02
2023-05-17T10:58:19.990Z,14.42
2023-05-17T11:00:48.508Z,14.18
2023-05-17T11:03:19.040Z,13.91
2023-05-17T11:06:21.971Z,13.59
2023-05-17T11:09:16.191Z,13.96
2023-05-17T11:12:05.133Z,14.05
2023-05-17T11:14:46.976Z,14.38
2023-05-17T11:17:18.270Z,13.96
2023-05-17T11:19:57.099Z,13.76
2023-05-17T11:22:28.033Z,14.18
2023-05-17T11:24:57.651Z,14.92
2023-05-17T11:27:27.611Z,15.01
2023-05-17T11:30:00.887Z,14.39
2023-05-17T11:32:35.441Z,14.22
2023-05-17T11:35:02.320Z,13.97
2023-05-17T11:37:36.200Z,14.11
2023-05-17T11:40:05.023Z,13.88
2023-05-17T11:42:34.129Z,13.89
2023-05-17T11:45:04.113Z,14.19
2023-05-17T11:47:31.416Z,14.07
2023-05-17T11:50:04.406Z,14.23
2023-05-17T11:52:34.296Z,14.79
2023-05-17T11:55:07.095Z,14.42
2023-05-17T11:57:33.739Z,14.55
2023-05-17T12:00:06.665Z,14.55
2023-05-17T12:02:33.397Z,14.76
2023-05-17T12:05:03.007Z,14.20
2023-05-17T12:07:34.474Z,14.16
2023-05-17T12:10:03.351Z,14.04
2023-05-17T12:12:32.516Z,13.97
2023-05-17T12:14:59.692Z,14.97
2023-05-17T12:17:35.548Z,14.87
2023-05-17T12:20:14.684Z,15.28
2023-05-17T12:22:54.428Z,14.44
2023-05-17T12:25:25.683Z,14.61
2023-05-17T12:27:54.693Z,14.70
2023-05-17T12:30:21.803Z,15.47
2023-05-17T12:32:48.640Z,15.87
2023-05-17T12:35:17.951Z,16.07
2023-05-17T12:37:47.827Z,16.02
2023-05-17T12:40:14.416Z,15.43
2023-05-17T12:42:43.965Z,16.18
2023-05-17T12:45:13.100Z,15.32
2023-05-17T12:47:39.843Z,15.61
2023-05-17T12:50:06.872Z,16.20
2023-05-17T12:52:35.208Z,15.81
2023-05-17T12:55:05.100Z,15.96
2023-05-17T12:57:34.633Z,15.16
2023-05-17T13:00:07.766Z,15.32
2023-05-17T13:02:34.465Z,15.13
2023-05-17T13:05:14.364Z,15.14
2023-05-17T13:07:43.468Z,15.55
2023-05-17T13:10:28.993Z,15.57
2023-05-17T13:13:03.105Z,15.58
2023-05-17T13:15:33.896Z,15.22
2023-05-17T13:18:00.795Z,15.15
2023-05-17T13:20:32.987Z,14.51
2023-05-17T13:23:01.685Z,14.45
2023-05-17T13:25:28.303Z,15.38
2023-05-17T13:27:55.585Z,15.60
2023-05-17T13:30:22.555Z,15.53
2023-05-17T13:32:49.241Z,15.64
2023-05-17T13:35:16.129Z,15.60
2023-05-17T13:37:43.018Z,14.89
2023-05-17T13:40:09.937Z,14.81
2023-05-17T13:42:36.814Z,14.83
2023-05-17T13:45:05.112Z,14.24
2023-05-17T13:47:33.996Z,14.72
2023-05-17T13:50:03.959Z,14.82
2023-05-17T13:52:33.017Z,15.39
2023-05-17T13:54:59.712Z,16.01
2023-05-17T13:57:26.544Z,15.70
2023-05-17T13:59:53.148Z,14.89
2023-05-17T14:02:19.735Z,14.86
2023-05-17T14:04:46.427Z,14.59
2023-05-17T14:07:13.407Z,14.38
2023-05-17T14:09:40.204Z,14.27
2023-05-17T14:12:07.054Z,14.92
2023-05-17T14:14:33.745Z,15.47
2023-05-17T14:17:01.866Z,16.85
2023-05-17T14:19:28.679Z,16.86
2023-05-17T14:21:55.522Z,16.23
2023-05-17T14:24:22.325Z,16.26
2023-05-17T14:26:48.916Z,15.75
2023-05-17T14:29:15.754Z,14.74
2023-05-17T14:31:44.773Z,15.16
2023-05-17T14:34:13.758Z,15.03
2023-05-17T14:36:43.310Z,15.93
2023-05-17T14:39:13.280Z,16.01
2023-05-17T14:41:40.290Z,15.96
2023-05-17T14:44:07.689Z,15.54
2023-05-17T14:46:39.006Z,15.67
2023-05-17T14:49:08.144Z,15.48
2023-05-17T14:51:34.767Z,15.85
2023-05-17T14:54:03.832Z,15.36
2023-05-17T14:56:30.740Z,15.50
2023-05-17T14:58:59.971Z,15.11
2023-05-17T15:01:26.566Z,15.31
2023-05-17T15:03:53.223Z,15.29
2023-05-17T15:06:24.799Z,14.76
2023-05-17T15:08:52.023Z,15.11
2023-05-17T15:11:18.627Z,15.31
2023-05-17T15:13:47.761Z,15.28
2023-05-17T15:16:14.402Z,14.88
2023-05-17T15:18:41.436Z,14.60
2023-05-17T15:21:08.056Z,14.61
2023-05-17T15:23:34.621Z,14.56
2023-05-17T15:26:06.016Z,14.30
2023-05-17T15:28:32.602Z,14.18
2023-05-17T15:31:01.592Z,14.62
2023-05-17T15:33:28.838Z,14.39
2023-05-17T15:35:55.566Z,14.46
2023-05-17T15:38:24.685Z,14.93
2023-05-17T15:41:04.964Z,15.11
2023-05-17T15:43:33.278Z,15.04
2023-05-17T15:46:03.126Z,15.22
2023-05-17T15:48:29.960Z,14.80
2023-05-17T15:50:57.795Z,14.55
2023-05-17T15:53:25.483Z,14.28
2023-05-17T15:55:54.308Z,14.29
2023-05-17T15:58:24.747Z,14.07
2023-05-17T16:00:54.619Z,13.98
2023-05-17T16:03:26.024Z,14.02
2023-05-17T16:05:54.960Z,14.40
2023-05-17T16:08:21.806Z,14.12
2023-05-17T16:10:48.432Z,14.24
2023-05-17T16:13:17.276Z,14.23
2023-05-17T16:15:46.184Z,14.25
2023-05-17T16:18:15.696Z,14.30
2023-05-17T16:20:42.923Z,14.32
2023-05-17T16:23:10.046Z,14.04
2023-05-17T16:25:36.634Z,13.95
2023-05-17T16:28:07.721Z,13.67
2023-05-17T16:30:34.276Z,13.53
2023-05-17T16:33:05.550Z,13.69
2023-05-17T16:35:36.599Z,13.88
2023-05-17T16:38:03.200Z,13.73
2023-05-17T16:40:30.073Z,13.82
2023-05-17T16:42:56.859Z,13.73
2023-05-17T16:45:23.615Z,13.83
2023-05-17T16:47:55.127Z,13.78
2023-05-17T16:50:21.765Z,13.61
2023-05-17T16:52:50.859Z,13.77
2023-05-17T16:55:19.867Z,13.66
2023-05-17T16:57:46.481Z,13.66
2023-05-17T17:00:13.637Z,13.63
2023-05-17T17:02:40.480Z,13.72
2023-05-17T17:05:07.536Z,13.88
2023-05-17T17:07:36.606Z,13.79
2023-05-17T17:10:05.903Z,13.48
2023-05-17T17:12:32.486Z,13.40
2023-05-17T17:15:01.183Z,13.55
2023-05-17T17:17:32.572Z,13.33
2023-05-17T17:20:01.787Z,13.61
2023-05-17T17:22:28.337Z,13.41
2023-05-17T17:24:55.046Z,13.41
2023-05-17T17:27:21.692Z,13.43
2023-05-17T17:29:48.256Z,13.47
2023-05-17T17:32:17.360Z,13.24
2023-05-17T17:34:44.010Z,13.13
2023-05-17T17:37:11.003Z,13.20
2023-05-17T17:39:42.122Z,13.12
2023-05-17T17:42:10.685Z,13.19
2023-05-17T17:44:39.395Z,13.26
2023-05-17T17:47:06.239Z,13.24
2023-05-17T17:49:36.067Z,13.00
2023-05-17T17:52:03.040Z,12.92
2023-05-17T17:54:29.685Z,12.98
2023-05-17T17:56:58.480Z,12.86
2023-05-17T17:59:29.692Z,12.67
2023-05-17T18:02:00.965Z,12.65
2023-05-17T18:04:29.871Z,12.67
2023-05-17T18:06:56.694Z,12.54
2023-05-17T18:09:23.919Z,12.54
2023-05-17T18:11:54.228Z,12.55
2023-05-17T18:14:21.788Z,12.52
2023-05-17T18:16:48.378Z,12.35
2023-05-17T18:19:17.372Z,12.45
2023-05-17T18:21:44.014Z,12.37
2023-05-17T18:24:13.055Z,12.26
2023-05-17T18:26:39.640Z,12.23
2023-05-17T18:29:06.245Z,12.07
2023-05-17T18:31:35.803Z,12.10
2023-05-17T18:34:02.396Z,11.95
2023-05-17T18:36:28.967Z,11.90
2023-05-17T18:38:59.544Z,11.92
2023-05-17T18:41:26.409Z,11.90
2023-05-17T18:43:53.456Z,11.86
2023-05-17T18:46:20.085Z,11.69
2023-05-17T18:48:46.693Z,11.67
2023-05-17T18:51:15.385Z,11.66
2023-05-17T18:53:41.915Z,11.67
2023-05-17T18:56:08.498Z,11.74
2023-05-17T18:58:37.253Z,11.75
2023-05-17T19:01:08.751Z,11.65
2023-05-17T19:03:35.468Z,11.60
2023-05-17T19:06:02.088Z,11.67
2023-05-17T19:08:28.719Z,11.57
2023-05-17T19:10:58.385Z,11.61
2023-05-17T19:13:27.294Z,11.63
2023-05-17T19:15:56.630Z,11.64
2023-05-17T19:18:23.260Z,11.52
2023-05-17T19:20:52.643Z,11.61
2023-05-17T19:23:21.290Z,11.46
2023-05-17T19:25:48.387Z,11.51
2023-05-17T19:28:15.058Z,11.46
2023-05-17T19:30:41.779Z,11.49
2023-05-17T19:33:08.416Z,11.41
2023-05-17T19:35:37.057Z,11.44
2023-05-17T19:38:08.716Z,11.33
2023-05-17T19:40:35.766Z,11.34
2023-05-17T19:43:04.906Z,11.44
2023-05-17T19:45:33.821Z,11.30
2023-05-17T19:48:00.515Z,11.27
2023-05-17T19:50:32.037Z,11.37
2023-05-17T19:52:58.810Z,11.31
2023-05-17T19:55:29.809Z,11.39
2023-05-17T19:57:57.255Z,11.29
2023-05-17T20:00:26.345Z,11.25
2023-05-17T20:02:53.023Z,11.28
2023-05-17T20:05:22.090Z,11.15
2023-05-17T20:07:48.706Z,11.24
2023-05-17T20:10:15.396Z,11.07
2023-05-17T20:12:42.098Z,11.06
2023-05-17T20:15:09.286Z,11.07
2023-05-17T20:17:36.215Z,11.13
2023-05-17T20:20:03.045Z,10.97
2023-05-17T20:22:32.029Z,10.95
2023-05-17T20:25:00.861Z,11.02
2023-05-17T20:27:27.485Z,10.92
2023-05-17T20:29:57.110Z,10.87
2023-05-17T20:32:28.685Z,10.86
2023-05-17T20:34:55.300Z,10.75
2023-05-17T20:37:21.940Z,10.75
2023-05-17T20:39:48.921Z,10.79
2023-05-17T20:42:18.283Z,10.76
2023-05-17T20:44:45.416Z,10.66
2023-05-17T20:47:12.312Z,10.66
2023-05-17T20:49:38.878Z,10.56
2023-05-17T20:52:05.862Z,10.47
2023-05-17T20:54:32.489Z,10.45
2023-05-17T20:56:59.898Z,10.45
2023-05-17T20:59:26.811Z,10.50
2023-05-17T21:01:53.556Z,10.55
2023-05-17T21:04:22.690Z,10.45
2023-05-17T21:06:52.315Z,10.32
2023-05-17T21:09:23.695Z,10.33
2023-05-17T21:11:52.205Z,10.26
2023-05-17T21:14:18.823Z,10.23
2023-05-17T21:16:47.524Z,10.24
2023-05-17T21:19:14.608Z,10.22
2023-05-17T21:21:41.240Z,10.26
2023-05-17T21:24:08.281Z,10.18
2023-05-17T21:26:40.554Z,10.17
2023-05-17T21:29:10.405Z,10.26
2023-05-17T21:31:37.288Z,10.16
2023-05-17T21:34:04.149Z,10.01
2023-05-17T21:36:35.479Z,9.95
2023-05-17T21:39:02.098Z,9.92
2023-05-17T21:41:31.454Z,9.93
2023-05-17T21:43:58.095Z,10.00
2023-05-17T21:46:24.738Z,10.00
2023-05-17T21:48:52.174Z,9.88
2023-05-17T21:51:22.050Z,9.87
2023-05-17T21:53:50.404Z,9.83
2023-05-17T21:56:17.042Z,9.89
2023-05-17T21:58:43.626Z,9.93
2023-05-17T22:01:10.252Z,9.93
2023-05-17T22:03:36.871Z,9.75
2023-05-17T22:06:10.808Z,9.71
2023-05-17T22:08:42.338Z,9.52
2023-05-17T22:11:09.570Z,9.50
2023-05-17T22:13:42.164Z,9.50
2023-05-17T22:16:09.040Z,9.36
2023-05-17T22:18:35.827Z,9.29
2023-05-17T22:21:04.544Z,9.32
2023-05-17T22:23:33.261Z,9.22
2023-05-17T22:26:01.931Z,9.23
2023-05-17T22:28:28.756Z,9.07
2023-05-17T22:30:58.119Z,9.04
2023-05-17T22:33:24.728Z,8.95
2023-05-17T22:35:54.231Z,8.96
2023-05-17T22:38:23.311Z,8.91
2023-05-17T22:40:49.989Z,8.93
2023-05-17T22:43:17.086Z,8.92
2023-05-17T22:45:43.686Z,8.82
2023-05-17T22:48:14.463Z,8.78
2023-05-17T22:50:41.532Z,8.75
2023-05-17T22:53:08.140Z,8.72
2023-05-17T22:55:34.708Z,8.62
2023-05-17T22:58:01.275Z,8.57
2023-05-17T23:00:30.138Z,8.57
2023-05-17T23:03:01.443Z,8.53
2023-05-17T23:05:28.209Z,8.44
2023-05-17T23:07:57.117Z,8.56
2023-05-17T23:10:24.038Z,8.42
2023-05-17T23:12:58.226Z,8.40
2023-05-17T23:15:28.416Z,8.35
2023-05-17T23:17:59.619Z,8.37
2023-05-17T23:20:26.845Z,8.33
2023-05-17T23:22:53.904Z,8.33
2023-05-17T23:25:20.807Z,8.22
2023-05-17T23:27:52.090Z,8.22
2023-05-17T23:30:18.669Z,8.16
2023-05-17T23:32:50.382Z,8.08
2023-05-17T23:35:17.096Z,8.13
2023-05-17T23:37:43.713Z,8.15
2023-05-17T23:40:14.667Z,8.13
2023-05-17T23:42:43.543Z,8.07
2023-05-17T23:45:14.707Z,8.03
2023-05-17T23:47:41.486Z,7.98
2023-05-17T23:50:13.083Z,8.07
2023-05-17T23:52:43.565Z,8.08
2023-05-17T23:55:10.232Z,8.01
2023-05-17T23:57:37.815Z,7.92
